Time;durP1;ratioP1;P1;durP2;ratioP2;P2;SDS_P1;SDS_P2;PMS_P1;PMS_P2;Temp;Humidity;BMP_temperature;BMP_pressure;BME280_temperature;BME280_humidity;BME280_pressure;Samples;Min_cycle;Max_cycle;Signal;HPM_P1;HPM_P2
2022/08/19 00:00:24;;;;;;;45.00;42.45;;;23.30;63.70;;;;;;5016694;28;20037;-78
2022/08/19 00:02:51;;;;;;;45.25;42.58;;;23.40;64.10;;;;;;5033827;28;20033;-78
2022/08/19 00:05:18;;;;;;;49.35;46.53;;;23.40;64.00;;;;;;5049922;28;20043;-78
2022/08/19 00:07:44;;;;;;;37.13;34.88;;;23.40;64.00;;;;;;5033500;28;20025;-78
2022/08/19 00:10:11;;;;;;;42.15;39.58;;;23.40;64.20;;;;;;5033401;28;20380;-78
2022/08/19 00:12:38;;;;;;;52.10;49.10;;;23.40;64.10;;;;;;5033310;28;20032;-78
2022/08/19 00:15:06;;;;;;;51.10;48.28;;;23.30;64.60;;;;;;5032961;28;20033;-79
2022/08/19 00:17:32;;;;;;;51.58;48.53;;;23.40;63.80;;;;;;5032901;28;20468;-78
2022/08/19 00:19:58;;;;;;;48.05;44.70;;;23.40;63.90;;;;;;5050976;28;20052;-78
2022/08/19 00:22:26;;;;;;;41.33;38.75;;;23.30;63.90;;;;;;5033031;28;20361;-78
2022/08/19 00:24:52;;;;;;;41.67;39.33;;;23.30;64.00;;;;;;5049869;28;20361;-78
2022/08/19 00:27:19;;;;;;;46.55;44.03;;;23.30;64.10;;;;;;5033069;28;20044;-78
2022/08/19 00:29:45;;;;;;;49.08;46.22;;;23.30;64.40;;;;;;5016384;28;20044;-78
2022/08/19 00:32:11;;;;;;;47.80;44.88;;;23.30;64.30;;;;;;5032543;28;20480;-78
2022/08/19 00:34:37;;;;;;;47.80;44.83;;;23.30;64.10;;;;;;5032772;28;20037;-78
2022/08/19 00:37:04;;;;;;;40.17;37.58;;;23.30;64.20;;;;;;5031019;28;20040;-78
2022/08/19 00:39:30;;;;;;;44.08;41.10;;;23.20;64.20;;;;;;5019689;28;20032;-78
2022/08/19 00:41:57;;;;;;;49.72;46.63;;;23.20;64.20;;;;;;5049271;28;20388;-78
2022/08/19 00:44:28;;;;;;;47.17;44.55;;;23.20;64.20;;;;;;5039747;28;20026;-78
2022/08/19 00:46:55;;;;;;;;;;;23.20;64.40;;;;;;5009505;28;20068;-78
2022/08/19 00:49:29;;;;;;;34.78;32.53;;;23.20;64.50;;;;;;5033189;28;19912;-78
2022/08/19 00:52:12;;;;;;;40.13;37.60;;;23.10;64.60;;;;;;5049479;28;20036;-78
2022/08/19 00:54:38;;;;;;;41.33;38.70;;;23.10;64.60;;;;;;5032435;28;20047;-78
2022/08/19 00:57:06;;;;;;;46.35;43.55;;;23.10;64.60;;;;;;5049348;28;20036;-78
2022/08/19 00:59:32;;;;;;;42.97;40.42;;;23.10;64.90;;;;;;5032299;28;20239;-78
2022/08/19 01:01:58;;;;;;;44.70;42.00;;;23.00;65.00;;;;;;5048868;28;20036;-78
2022/08/19 01:04:24;;;;;;;43.47;40.63;;;23.00;65.20;;;;;;5033161;28;20041;-78
2022/08/19 01:06:50;;;;;;;44.88;42.20;;;23.00;65.30;;;;;;5049321;28;20036;-78
2022/08/19 01:09:17;;;;;;;46.60;43.95;;;23.00;65.30;;;;;;5048945;28;20029;-78
2022/08/19 01:11:43;;;;;;;45.88;42.72;;;23.00;65.60;;;;;;5049294;28;20044;-78
2022/08/19 01:14:09;;;;;;;41.97;39.30;;;22.90;65.80;;;;;;5032509;28;20033;-78
2022/08/19 01:16:37;;;;;;;55.05;51.90;;;22.90;65.80;;;;;;5048890;28;20040;-78
2022/08/19 01:19:03;;;;;;;47.90;45.20;;;22.80;66.00;;;;;;5035340;28;20033;-78
2022/08/19 01:21:40;;;;;;;41.25;38.60;;;22.90;65.90;;;;;;5052942;28;20036;-78
2022/08/19 01:24:06;;;;;;;42.53;39.88;;;22.90;65.90;;;;;;5052757;28;20029;-78
2022/08/19 01:26:38;;;;;;;44.95;42.25;;;22.90;66.00;;;;;;5053006;28;20185;-78
2022/08/19 01:29:04;;;;;;;46.60;43.40;;;22.90;65.90;;;;;;5052823;28;20032;-78
2022/08/19 01:31:30;;;;;;;40.70;38.08;;;22.90;65.80;;;;;;5052216;28;20373;-78
2022/08/19 01:33:56;;;;;;;59.78;56.08;;;22.90;65.90;;;;;;5052884;28;20044;-78
2022/08/19 01:36:37;;;;;;;62.45;58.78;;;22.90;65.90;;;;;;5052786;28;20514;-78
2022/08/19 01:39:06;;;;;;;58.80;55.08;;;22.90;66.10;;;;;;5052313;28;20021;-78
2022/08/19 01:41:32;;;;;;;54.42;51.13;;;22.70;66.40;;;;;;5052558;28;20037;-78
2022/08/19 01:43:58;;;;;;;65.03;61.35;;;22.70;66.40;;;;;;5047581;28;20033;-78
2022/08/19 01:46:24;;;;;;;61.80;58.22;;;22.70;66.20;;;;;;5040878;28;20047;-78
2022/08/19 01:48:50;;;;;;;62.35;58.40;;;22.70;66.30;;;;;;5035985;28;20045;-78
2022/08/19 01:51:17;;;;;;;59.92;56.53;;;22.60;66.30;;;;;;5052450;28;20037;-78
2022/08/19 01:53:43;;;;;;;46.78;44.13;;;22.70;66.40;;;;;;5035703;28;20392;-78
2022/08/19 01:56:09;;;;;;;45.78;42.85;;;22.60;66.20;;;;;;5052241;28;20025;-78
2022/08/19 01:58:41;;;;;;;46.67;43.97;;;22.60;66.20;;;;;;5035604;28;20041;-78
2022/08/19 02:01:07;;;;;;;43.40;40.83;;;22.50;66.50;;;;;;5034890;28;20049;-78
2022/08/19 02:03:34;;;;;;;42.47;39.78;;;22.40;66.50;;;;;;5035588;28;20029;-78
2022/08/19 02:06:02;;;;;;;43.35;40.58;;;22.30;66.80;;;;;;5035571;28;20044;-78
2022/08/19 02:08:29;;;;;;;41.08;38.30;;;22.30;66.90;;;;;;5051611;28;20025;-78
2022/08/19 02:10:55;;;;;;;43.55;40.88;;;22.30;66.80;;;;;;5035177;28;20492;-78
2022/08/19 02:13:21;;;;;;;42.15;39.65;;;22.20;67.10;;;;;;5052195;28;20032;-78
2022/08/19 02:15:47;;;;;;;44.50;41.58;;;22.30;66.90;;;;;;5051523;28;20388;-78
2022/08/19 02:18:14;;;;;;;60.38;56.88;;;22.20;67.20;;;;;;5052039;28;20033;-78
2022/08/19 02:20:40;;;;;;;53.38;49.85;;;22.10;67.30;;;;;;5051817;28;20033;-78
2022/08/19 02:23:06;;;;;;;52.95;49.88;;;22.10;68.20;;;;;;5034616;28;20045;-78
2022/08/19 02:25:33;;;;;;;51.05;47.97;;;22.10;67.30;;;;;;5051916;28;20029;-78
2022/08/19 02:27:59;;;;;;;53.17;49.85;;;22.00;67.50;;;;;;5051901;28;20025;-77
2022/08/19 02:30:25;;;;;;;52.17;49.33;;;22.10;67.20;;;;;;5034232;28;20032;-78
2022/08/19 02:32:51;;;;;;;58.00;54.70;;;22.10;67.50;;;;;;5051735;28;20029;-78
2022/08/19 02:35:18;;;;;;;53.40;50.17;;;22.10;67.30;;;;;;5034662;28;20044;-78
2022/08/19 02:40:29;;;;;;;53.10;49.72;;;22.00;67.60;;;;;;5043248;28;20056;-78
2022/08/19 02:42:56;;;;;;;58.25;54.70;;;22.10;67.50;;;;;;5015263;28;20487;-77
2022/08/19 02:45:22;;;;;;;85.60;81.15;;;22.10;67.40;;;;;;5012860;28;20056;-78
2022/08/19 02:47:48;;;;;;;52.22;49.22;;;22.00;67.30;;;;;;5034575;28;20037;-78
2022/08/19 02:50:14;;;;;;;38.72;36.17;;;22.00;68.00;;;;;;5051388;28;20464;-78
2022/08/19 02:52:40;;;;;;;38.75;36.10;;;21.90;68.30;;;;;;5051020;28;20036;-78
2022/08/19 02:55:07;;;;;;;31.58;29.67;;;21.80;68.70;;;;;;5034485;28;20044;-78
2022/08/19 02:57:34;;;;;;;32.08;30.02;;;21.80;68.60;;;;;;5034370;28;20041;-78
2022/08/19 03:00:01;;;;;;;32.30;30.08;;;21.80;69.20;;;;;;5051216;28;20040;-78
2022/08/19 03:02:27;;;;;;;35.63;33.55;;;21.70;69.70;;;;;;5050374;28;20044;-78
2022/08/19 03:04:53;;;;;;;43.13;40.65;;;21.70;69.30;;;;;;5051106;28;20029;-78
2022/08/19 03:07:19;;;;;;;43.47;40.97;;;21.70;69.60;;;;;;5050880;28;20029;-78
2022/08/19 03:09:45;;;;;;;44.30;41.50;;;21.70;69.60;;;;;;5051966;28;20025;-78
2022/08/19 03:12:11;;;;;;;47.30;44.55;;;21.70;70.00;;;;;;5050963;28;20032;-78
2022/08/19 03:14:37;;;;;;;44.65;42.03;;;21.60;70.30;;;;;;5051056;28;20036;-78
2022/08/19 03:17:04;;;;;;;48.00;45.30;;;21.60;70.20;;;;;;5033604;28;20037;-77
2022/08/19 03:19:31;;;;;;;45.95;43.42;;;21.60;70.40;;;;;;5050419;28;20483;-78
2022/08/19 03:21:57;;;;;;;45.80;42.92;;;21.60;70.20;;;;;;5034393;28;20053;-78
2022/08/19 03:24:23;;;;;;;46.70;43.80;;;21.50;70.70;;;;;;5050202;28;20112;-78
2022/08/19 03:26:51;;;;;;;48.05;45.10;;;21.50;71.30;;;;;;5050760;28;20392;-78
2022/08/19 03:29:18;;;;;;;45.92;43.30;;;21.50;71.40;;;;;;5033809;28;20475;-78
2022/08/19 03:31:44;;;;;;;42.80;40.10;;;21.50;71.40;;;;;;5051327;28;20068;-79
2022/08/19 03:34:11;;;;;;;44.67;41.90;;;21.50;71.20;;;;;;5033319;28;20036;-78
2022/08/19 03:36:37;;;;;;;39.50;37.13;;;21.50;72.00;;;;;;5033640;28;20046;-78
2022/08/19 03:39:03;;;;;;;37.90;35.78;;;21.40;72.60;;;;;;5030427;28;20037;-77
2022/08/19 03:41:31;;;;;;;37.03;34.78;;;21.30;72.70;;;;;;5013095;28;20037;-78
2022/08/19 03:43:57;;;;;;;35.70;33.50;;;21.40;73.20;;;;;;5016851;28;20040;-78
2022/08/19 03:46:27;;;;;;;35.47;33.47;;;21.40;73.20;;;;;;5021367;28;20041;-78
2022/08/19 03:48:55;;;;;;;39.45;37.10;;;21.30;73.20;;;;;;5033082;28;20048;-78
2022/08/19 03:51:26;;;;;;;39.30;37.15;;;21.30;73.60;;;;;;5050339;28;20475;-78
2022/08/19 03:53:53;;;;;;;38.22;35.90;;;21.30;73.70;;;;;;5050293;28;20029;-77
2022/08/19 03:56:19;;;;;;;34.72;32.83;;;21.30;74.10;;;;;;5033147;28;20063;-78
2022/08/19 03:58:45;;;;;;;35.75;33.45;;;21.30;74.30;;;;;;5051440;28;20021;-78
2022/08/19 04:01:15;;;;;;;34.97;32.95;;;21.30;74.20;;;;;;5049530;28;20049;-78
2022/08/19 04:03:42;;;;;;;37.30;35.00;;;21.30;74.20;;;;;;5032993;28;20042;-78
2022/08/19 04:06:12;;;;;;;41.83;39.05;;;21.30;74.50;;;;;;5050063;28;20040;-78
2022/08/19 04:08:40;;;;;;;39.00;36.83;;;21.20;74.40;;;;;;5049803;28;20037;-78
2022/08/19 04:11:08;;;;;;;36.85;34.45;;;21.20;75.00;;;;;;5049722;28;20033;-78
2022/08/19 04:13:34;;;;;;;37.67;35.47;;;21.30;74.60;;;;;;5049886;28;20017;-78
2022/08/19 04:16:00;;;;;;;36.00;34.03;;;21.40;74.60;;;;;;5049431;28;20415;-78
2022/08/19 04:18:29;;;;;;;35.45;33.38;;;21.40;74.50;;;;;;5049615;28;20037;-78
2022/08/19 04:20:56;;;;;;;36.35;34.30;;;21.40;74.40;;;;;;5051050;28;20041;-78
2022/08/19 04:23:22;;;;;;;37.67;35.70;;;21.40;74.80;;;;;;5049946;28;20025;-78
2022/08/19 04:25:49;;;;;;;38.33;36.33;;;21.40;75.10;;;;;;5049583;28;20028;-78
2022/08/19 04:28:15;;;;;;;37.33;35.20;;;21.40;74.90;;;;;;5032977;28;20037;-78
2022/08/19 04:30:43;;;;;;;36.85;34.83;;;21.40;74.60;;;;;;5032525;28;20041;-78
2022/08/19 04:33:10;;;;;;;37.53;35.55;;;21.50;74.90;;;;;;5032482;28;20048;-78
2022/08/19 04:35:37;;;;;;;38.95;36.65;;;21.50;75.30;;;;;;5049577;28;20503;-78
2022/08/19 04:38:04;;;;;;;39.63;37.42;;;21.50;74.80;;;;;;5049670;28;20021;-78
2022/08/19 04:43:15;;;;;;;38.78;36.60;;;21.50;75.20;;;;;;5029645;28;20395;-78
2022/08/19 04:45:45;;;;;;;43.67;41.20;;;21.40;75.40;;;;;;5032528;28;20044;-78
2022/08/19 04:48:11;;;;;;;40.63;38.40;;;21.40;75.90;;;;;;5049023;28;20037;-78
2022/08/19 04:50:42;;;;;;;36.90;34.88;;;21.40;76.20;;;;;;5050670;28;20032;-78
2022/08/19 04:53:08;;;;;;;36.38;34.47;;;21.40;76.10;;;;;;5036120;28;20395;-78
2022/08/19 04:55:35;;;;;;;37.42;35.42;;;21.50;75.60;;;;;;5037122;28;20033;-78
2022/08/19 04:58:02;;;;;;;39.38;37.25;;;21.50;76.00;;;;;;5036881;28;20029;-78
2022/08/19 05:00:28;;;;;;;39.45;37.28;;;21.50;75.80;;;;;;5052752;28;20537;-78
2022/08/19 05:02:54;;;;;;;37.90;35.95;;;21.50;75.50;;;;;;5036552;28;20029;-78
2022/08/19 05:05:20;;;;;;;38.08;35.97;;;21.50;75.80;;;;;;5036840;28;20302;-78
2022/08/19 05:07:46;;;;;;;38.53;36.17;;;21.50;76.00;;;;;;5020570;28;20045;-78
2022/08/19 05:10:12;;;;;;;38.75;36.40;;;21.50;75.80;;;;;;5053129;28;20395;-78
2022/08/19 05:12:39;;;;;;;38.85;36.35;;;21.50;76.00;;;;;;5053224;28;20029;-78
2022/08/19 05:15:08;;;;;;;37.70;35.63;;;21.50;76.10;;;;;;5019905;28;20048;-78
2022/08/19 05:17:34;;;;;;;37.70;35.40;;;21.50;77.30;;;;;;5036801;28;20486;-78
2022/08/19 05:22:46;;;;;;;37.67;35.55;;;21.50;76.40;;;;;;5040462;28;20040;-78
2022/08/19 05:25:13;;;;;;;37.15;35.05;;;21.50;76.10;;;;;;5020287;28;20487;-78
2022/08/19 05:27:40;;;;;;;38.67;36.53;;;21.50;76.10;;;;;;5020025;28;20041;-78
2022/08/19 05:30:07;;;;;;;37.78;35.65;;;21.60;76.00;;;;;;5051941;28;20029;-78
2022/08/19 05:32:34;;;;;;;37.50;35.38;;;21.60;76.00;;;;;;5052818;28;20032;-78
2022/08/19 05:35:00;;;;;;;38.30;36.10;;;21.60;76.50;;;;;;5032278;28;20033;-78
2022/08/19 05:37:27;;;;;;;38.97;36.88;;;21.60;76.10;;;;;;5016779;28;20037;-78
2022/08/19 05:39:54;;;;;;;38.83;36.38;;;21.60;76.50;;;;;;5042470;28;20036;-78
2022/08/19 05:42:22;;;;;;;37.67;35.42;;;21.60;76.30;;;;;;5035988;28;20162;-78
2022/08/19 05:44:49;;;;;;;37.00;34.70;;;21.60;76.40;;;;;;5032037;28;20527;-78
2022/08/19 05:47:15;;;;;;;35.88;34.05;;;21.60;76.80;;;;;;5046804;28;20071;-78
2022/08/19 05:49:42;;;;;;;36.50;34.40;;;21.60;76.90;;;;;;5052373;28;20387;-78
2022/08/19 05:52:10;;;;;;;34.90;32.97;;;21.60;76.80;;;;;;5035538;28;20029;-78
2022/08/19 05:54:39;;;;;;;35.35;33.28;;;21.60;76.80;;;;;;5035668;28;20391;-78
2022/08/19 05:57:06;;;;;;;38.10;35.75;;;21.60;76.60;;;;;;5035905;28;20408;-78
2022/08/19 05:59:35;;;;;;;38.70;36.35;;;21.70;76.60;;;;;;5035141;28;20033;-78
2022/08/19 06:02:01;;;;;;;38.63;36.38;;;21.70;76.50;;;;;;5051871;28;20033;-78
2022/08/19 06:04:28;;;;;;;40.00;37.58;;;21.70;76.60;;;;;;5051629;28;20036;-78
2022/08/19 06:06:54;;;;;;;39.58;37.25;;;21.60;77.00;;;;;;5035773;28;20033;-78
2022/08/19 06:09:21;;;;;;;37.33;35.25;;;21.60;76.90;;;;;;5035343;28;20052;-78
2022/08/19 06:11:53;;;;;;;38.72;36.60;;;21.60;77.70;;;;;;5052198;28;20040;-78
2022/08/19 06:14:22;;;;;;;38.63;36.65;;;21.70;76.90;;;;;;5035050;28;20033;-78
2022/08/19 06:16:50;;;;;;;38.25;36.13;;;21.70;77.00;;;;;;5051477;28;20037;-78
2022/08/19 06:19:17;;;;;;;41.28;38.92;;;21.70;76.90;;;;;;5052044;28;20476;-78
2022/08/19 06:21:44;;;;;;;37.17;35.13;;;21.70;77.40;;;;;;5035318;28;20060;-78
2022/08/19 06:24:12;;;;;;;38.15;36.05;;;21.70;77.30;;;;;;5035009;28;20033;-78
2022/08/19 06:26:40;;;;;;;37.75;35.75;;;21.70;77.60;;;;;;5052005;28;20025;-78
2022/08/19 06:29:06;;;;;;;42.15;39.83;;;21.60;77.50;;;;;;5051348;28;20468;-78
2022/08/19 06:31:33;;;;;;;41.28;39.00;;;21.70;77.60;;;;;;5049240;28;20037;-78
2022/08/19 06:34:02;;;;;;;40.50;38.38;;;21.70;77.40;;;;;;5051856;28;20389;-78
2022/08/19 06:36:34;;;;;;;41.08;38.67;;;21.80;77.30;;;;;;5031562;28;20431;-79
2022/08/19 06:39:05;;;;;;;38.95;36.75;;;21.80;77.60;;;;;;5018019;28;20041;-78
2022/08/19 06:41:32;;;;;;;;;;;21.80;77.70;;;;;;5035039;28;20053;-78
2022/08/19 06:43:58;;;;;;;39.10;36.95;;;21.70;78.70;;;;;;5061077;28;19912;-78
2022/08/19 06:46:24;;;;;;;39.13;36.90;;;21.60;78.70;;;;;;5023059;28;20036;-78
2022/08/19 06:48:53;;;;;;;41.10;38.70;;;21.60;78.40;;;;;;5034524;28;20037;-78
2022/08/19 06:51:19;;;;;;;43.40;40.67;;;21.60;78.70;;;;;;5051580;28;20032;-78
2022/08/19 06:53:46;;;;;;;43.28;40.35;;;21.60;79.10;;;;;;5034603;28;20029;-78
2022/08/19 06:56:14;;;;;;;44.15;41.30;;;21.50;79.30;;;;;;5034903;28;20041;-78
2022/08/19 06:58:40;;;;;;;44.80;41.67;;;21.60;79.10;;;;;;5050964;28;20029;-78
2022/08/19 07:01:06;;;;;;;43.05;40.35;;;21.60;79.10;;;;;;5033722;28;20037;-78
2022/08/19 07:03:34;;;;;;;44.50;41.63;;;21.60;79.40;;;;;;5051213;28;20471;-78
2022/08/19 07:06:09;;;;;;;48.78;45.78;;;21.60;79.00;;;;;;5034432;28;20048;-78
2022/08/19 07:08:40;;;;;;;51.45;48.00;;;21.70;79.00;;;;;;5051189;28;20032;-78
2022/08/19 07:11:07;;;;;;;51.72;48.55;;;21.70;78.80;;;;;;5034787;28;20041;-78
2022/08/19 07:13:36;;;;;;;53.13;49.88;;;21.80;78.70;;;;;;5050665;28;20033;-78
2022/08/19 07:16:06;;;;;;;52.17;48.88;;;21.80;78.60;;;;;;5049336;28;20037;-78
2022/08/19 07:18:33;;;;;;;49.88;46.70;;;21.90;78.50;;;;;;5034143;28;20052;-78
2022/08/19 07:21:11;;;;;;;49.08;46.00;;;21.90;78.70;;;;;;5033866;28;20037;-78
2022/08/19 07:23:37;;;;;;;49.40;46.50;;;21.90;78.60;;;;;;5034197;28;20380;-78
2022/08/19 07:26:12;;;;;;;54.53;51.30;;;21.90;78.50;;;;;;5033700;28;20040;-78
2022/08/19 07:28:38;;;;;;;52.10;48.95;;;21.90;78.70;;;;;;5034095;28;20052;-78
2022/08/19 07:31:08;;;;;;;55.20;51.88;;;21.90;78.60;;;;;;5050091;28;20037;-78
2022/08/19 07:33:35;;;;;;;52.53;49.55;;;22.00;78.50;;;;;;5033730;28;20040;-78
2022/08/19 07:36:06;;;;;;;52.88;49.80;;;22.00;78.00;;;;;;5050435;28;20044;-78
2022/08/19 07:38:32;;;;;;;53.17;50.25;;;22.00;78.20;;;;;;5033617;28;20041;-78
2022/08/19 07:40:59;;;;;;;58.40;55.15;;;22.10;77.90;;;;;;5033065;28;20053;-78
2022/08/19 07:43:26;;;;;;;62.33;58.97;;;22.20;77.70;;;;;;5048724;28;20025;-78
2022/08/19 07:45:56;;;;;;;58.25;55.10;;;22.20;77.90;;;;;;5033927;28;20041;-77
2022/08/19 07:48:29;;;;;;;49.50;46.85;;;22.20;77.60;;;;;;5108887;27;20528;-77
2022/08/19 07:50:56;;;;;;;46.45;44.00;;;22.20;77.50;;;;;;5107631;28;20036;-77
2022/08/19 07:53:23;;;;;;;43.08;40.58;;;22.30;77.10;;;;;;5107898;28;20024;-77
2022/08/19 07:55:49;;;;;;;46.88;44.22;;;22.30;77.20;;;;;;5107308;28;20024;-77
2022/08/19 07:58:18;;;;;;;43.72;41.40;;;22.40;77.00;;;;;;5090358;28;20423;-77
2022/08/19 08:00:44;;;;;;;47.35;44.85;;;22.60;76.60;;;;;;5095258;27;20073;-77
2022/08/19 08:03:11;;;;;;;42.83;40.53;;;22.60;76.40;;;;;;5050675;28;20409;-77
2022/08/19 08:11:03;;;;;;;;;;;22.70;75.30;;;;;;5069156;28;20035;-77
2022/08/19 08:13:29;;;;;;;33.30;31.48;;;22.80;74.90;;;;;;5066892;28;19964;-77
2022/08/19 08:15:56;;;;;;;40.22;38.08;;;22.90;75.00;;;;;;5049784;28;20047;-77
2022/08/19 08:18:25;;;;;;;42.35;40.10;;;22.90;74.70;;;;;;5050128;28;20032;-77
2022/08/19 08:20:52;;;;;;;40.95;38.72;;;23.00;75.50;;;;;;5050072;28;20052;-77
2022/08/19 08:23:25;;;;;;;42.13;39.85;;;23.10;74.10;;;;;;5066674;28;20029;-77
2022/08/19 08:25:52;;;;;;;41.60;39.42;;;23.20;73.90;;;;;;5050885;28;20052;-77
2022/08/19 08:28:18;;;;;;;47.80;45.28;;;23.20;73.50;;;;;;5033120;28;20506;-77
2022/08/19 08:30:47;;;;;;;50.45;47.42;;;23.30;73.40;;;;;;5029235;28;20037;-77
2022/08/19 08:33:14;;;;;;;49.28;46.78;;;23.40;73.00;;;;;;5046353;28;20029;-77
2022/08/19 08:35:42;;;;;;;52.78;50.08;;;23.50;72.40;;;;;;5046408;28;20033;-77
2022/08/19 08:38:08;;;;;;;48.28;45.83;;;23.60;72.10;;;;;;5046377;28;20032;-78
2022/08/19 08:40:55;;;;;;;46.55;44.13;;;23.60;72.10;;;;;;5045799;28;20033;-77
2022/08/19 08:43:28;;;;;;;53.45;50.53;;;23.70;71.00;;;;;;5029569;28;20037;-77
2022/08/19 08:46:05;;;;;;;49.13;46.40;;;23.80;71.20;;;;;;5055474;28;20032;-77
2022/08/19 08:48:54;;;;;;;45.28;43.00;;;23.90;70.90;;;;;;5065791;28;20052;-77
2022/08/19 08:51:33;;;;;;;44.60;42.28;;;24.00;71.30;;;;;;5066186;28;20025;-77
2022/08/19 08:53:59;;;;;;;45.22;42.90;;;24.00;69.60;;;;;;5049781;28;20501;-77
2022/08/19 08:56:25;;;;;;;48.08;45.67;;;24.00;69.50;;;;;;5048877;28;20036;-77
2022/08/19 08:59:12;;;;;;;50.95;48.38;;;24.00;69.70;;;;;;5057951;28;20033;-77
2022/08/19 09:01:39;;;;;;;46.28;43.95;;;24.00;69.40;;;;;;5035124;28;20033;-77
2022/08/19 09:04:06;;;;;;;47.85;45.45;;;24.10;69.40;;;;;;5052573;28;20029;-77
2022/08/19 09:06:44;;;;;;;50.28;47.80;;;24.10;69.30;;;;;;5052504;28;20028;-77
2022/08/19 09:09:16;;;;;;;54.22;51.53;;;24.00;69.90;;;;;;5052104;28;20044;-77
2022/08/19 09:12:23;;;;;;;53.78;51.13;;;24.10;69.90;;;;;;5052343;28;20021;-77
2022/08/19 09:15:04;;;;;;;50.45;47.90;;;24.10;68.90;;;;;;5052605;28;20025;-77
2022/08/19 09:17:30;;;;;;;51.63;49.05;;;24.20;68.90;;;;;;5051352;28;20425;-77
2022/08/19 09:20:00;;;;;;;53.75;51.03;;;24.30;69.00;;;;;;5052319;28;20033;-77
2022/08/19 09:22:26;;;;;;;52.87;50.27;;;24.30;69.70;;;;;;5051970;28;20036;-77
2022/08/19 09:24:53;;;;;;;52.78;50.15;;;24.20;69.20;;;;;;5051689;28;20041;-77
2022/08/19 09:27:20;;;;;;;49.70;47.10;;;24.20;69.00;;;;;;5052386;28;20037;-77
2022/08/19 09:29:48;;;;;;;51.78;49.08;;;24.30;69.20;;;;;;5051991;28;20021;-77
2022/08/19 09:32:15;;;;;;;52.78;50.00;;;24.40;69.10;;;;;;5051633;28;20048;-77
2022/08/19 09:34:41;;;;;;;54.22;51.55;;;24.50;68.80;;;;;;5051473;28;20033;-77
2022/08/19 09:37:08;;;;;;;53.33;50.72;;;24.60;68.80;;;;;;5034701;28;20060;-77
2022/08/19 09:39:34;;;;;;;61.78;58.75;;;24.70;68.50;;;;;;5051744;28;20028;-77
2022/08/19 09:42:00;;;;;;;61.95;58.95;;;24.80;67.40;;;;;;5035146;28;20059;-77
2022/08/19 09:44:26;;;;;;;55.47;52.40;;;24.90;66.50;;;;;;5053037;28;20040;-77
2022/08/19 09:46:52;;;;;;;61.38;58.35;;;24.90;65.90;;;;;;5053617;28;20060;-78
2022/08/19 09:49:18;;;;;;;58.22;55.28;;;24.90;67.20;;;;;;5051394;28;20482;-77
2022/08/19 09:51:45;;;;;;;56.83;53.75;;;24.90;67.80;;;;;;5034798;28;20055;-77
2022/08/19 09:54:11;;;;;;;58.55;55.42;;;24.80;69.30;;;;;;5034550;28;20060;-77
2022/08/19 09:56:37;;;;;;;65.32;61.83;;;24.70;70.00;;;;;;5035115;28;20025;-77
2022/08/19 09:59:03;;;;;;;72.55;68.90;;;24.60;69.70;;;;;;5034194;28;20363;-77
2022/08/19 10:01:30;;;;;;;63.95;60.75;;;24.60;70.60;;;;;;5051023;28;20048;-77
2022/08/19 10:03:57;;;;;;;90.88;86.30;;;24.40;72.10;;;;;;5051343;28;20378;-77
2022/08/19 10:06:25;;;;;;;109.35;103.85;;;24.30;73.30;;;;;;5034310;28;20041;-77
2022/08/19 10:08:51;;;;;;;86.90;82.50;;;24.30;74.00;;;;;;5051248;28;20040;-77
2022/08/19 10:11:18;;;;;;;109.00;103.47;;;24.40;74.00;;;;;;5033543;28;20044;-77
2022/08/19 10:13:45;;;;;;;114.57;108.82;;;24.40;73.50;;;;;;5051188;28;20666;-77
2022/08/19 10:16:13;;;;;;;78.28;74.32;;;24.30;73.30;;;;;;5050676;28;20032;-77
2022/08/19 10:18:42;;;;;;;82.78;78.60;;;24.30;73.30;;;;;;5033837;28;20044;-77
2022/08/19 10:21:13;;;;;;;104.78;99.60;;;24.40;74.10;;;;;;5034665;28;20040;-77
2022/08/19 10:23:43;;;;;;;120.45;114.50;;;24.30;74.80;;;;;;5034133;28;20056;-77
2022/08/19 10:26:09;;;;;;;66.65;63.00;;;24.30;75.20;;;;;;5051214;28;20037;-76
2022/08/19 10:28:37;;;;;;;59.53;56.42;;;24.30;75.80;;;;;;5050735;28;20041;-76
2022/08/19 10:31:07;;;;;;;57.42;54.38;;;24.30;77.00;;;;;;5033859;28;20386;-76
2022/08/19 10:33:34;;;;;;;55.38;52.53;;;24.20;76.80;;;;;;5050873;28;20032;-76
2022/08/19 10:36:02;;;;;;;55.33;52.35;;;24.30;76.60;;;;;;5050309;28;20044;-76
2022/08/19 10:38:28;;;;;;;58.55;55.45;;;24.30;76.80;;;;;;5052058;28;20314;-76
2022/08/19 10:40:55;;;;;;;52.40;49.53;;;24.30;77.20;;;;;;5050574;28;20025;-76
2022/08/19 10:43:21;;;;;;;61.53;58.22;;;24.30;77.90;;;;;;5050874;28;20037;-79
2022/08/19 10:45:58;;;;;;;58.00;55.08;;;24.30;77.50;;;;;;5052685;28;20508;-76
2022/08/19 10:48:24;;;;;;;63.67;60.38;;;24.30;77.60;;;;;;5050474;28;20040;-76
2022/08/19 10:53:35;;;;;;;72.05;68.38;;;24.30;77.40;;;;;;5043550;28;20032;-76
2022/08/19 10:58:45;;;;;;;84.47;80.07;;;24.50;78.30;;;;;;5053816;28;20036;-77
2022/08/19 11:01:11;;;;;;;67.85;64.18;;;24.50;78.30;;;;;;5032855;28;20044;-77
2022/08/19 11:03:37;;;;;;;90.30;85.63;;;24.60;79.10;;;;;;5050121;28;20036;-77
2022/08/19 11:06:06;;;;;;;114.28;108.40;;;24.70;79.10;;;;;;5050106;28;20033;-77
2022/08/19 11:08:34;;;;;;;106.28;100.95;;;24.90;78.80;;;;;;5033609;28;20410;-77
2022/08/19 11:11:02;;;;;;;84.32;79.93;;;25.20;78.10;;;;;;5050195;28;20024;-77
2022/08/19 11:13:34;;;;;;;77.32;73.38;;;25.30;75.70;;;;;;5033799;28;20041;-77
2022/08/19 11:16:03;;;;;;;76.70;72.78;;;25.30;74.80;;;;;;5049650;28;20044;-77
2022/08/19 11:18:29;;;;;;;79.15;75.10;;;25.40;74.70;;;;;;5049684;28;20025;-77
2022/08/19 11:21:05;;;;;;;75.82;71.97;;;25.40;74.30;;;;;;5049760;28;20032;-77
2022/08/19 11:23:31;;;;;;;70.57;66.63;;;25.50;74.20;;;;;;5033289;28;20052;-77
2022/08/19 11:25:59;;;;;;;63.28;60.05;;;25.50;73.10;;;;;;5033700;28;20040;-77
2022/08/19 11:28:25;;;;;;;67.20;63.70;;;25.60;72.70;;;;;;5049883;28;20041;-77
2022/08/19 11:30:51;;;;;;;60.40;57.40;;;25.60;72.90;;;;;;5049380;28;20047;-77
2022/08/19 11:33:18;;;;;;;64.70;61.55;;;25.70;71.90;;;;;;5049841;28;20043;-77
2022/08/19 11:35:44;;;;;;;65.40;62.15;;;25.70;71.00;;;;;;5049336;28;20044;-77
2022/08/19 11:38:11;;;;;;;58.33;55.42;;;25.70;71.10;;;;;;5049730;28;20040;-77
2022/08/19 11:40:37;;;;;;;58.88;55.88;;;25.70;71.30;;;;;;5013741;28;20033;-77
2022/08/19 11:43:03;;;;;;;59.42;56.35;;;25.80;70.50;;;;;;5046430;28;20033;-77
2022/08/19 11:45:30;;;;;;;55.80;53.08;;;25.80;70.30;;;;;;5018656;28;20077;-77
2022/08/19 11:47:56;;;;;;;59.95;57.05;;;25.90;69.90;;;;;;5016007;28;20044;-77
2022/08/19 11:50:23;;;;;;;59.15;56.20;;;26.00;68.90;;;;;;5033218;28;20036;-77
2022/08/19 11:52:49;;;;;;;57.50;54.60;;;26.10;68.40;;;;;;5032997;28;20386;-77
2022/08/19 11:55:15;;;;;;;67.07;63.67;;;26.10;68.50;;;;;;5033233;28;20056;-77
2022/08/19 11:57:43;;;;;;;59.92;57.03;;;26.10;67.70;;;;;;5033161;28;20029;-77
2022/08/19 12:00:12;;;;;;;62.63;59.60;;;26.00;67.20;;;;;;5016165;28;20037;-77
2022/08/19 12:02:38;;;;;;;55.35;52.65;;;26.00;67.20;;;;;;5033073;28;20474;-77
2022/08/19 12:05:05;;;;;;;65.85;62.60;;;25.90;66.80;;;;;;5032861;28;20040;-77
2022/08/19 12:07:32;;;;;;;56.10;53.38;;;26.00;66.50;;;;;;5032679;28;20067;-77
2022/08/19 12:09:59;;;;;;;65.63;62.42;;;25.80;66.70;;;;;;5032988;28;20045;-77
2022/08/19 12:12:26;;;;;;;62.20;59.20;;;25.80;66.80;;;;;;5032958;28;20063;-77
2022/08/19 12:14:56;;;;;;;60.55;57.53;;;25.90;66.80;;;;;;5032824;28;20056;-77
2022/08/19 12:17:26;;;;;;;52.65;49.97;;;25.90;66.40;;;;;;5032737;28;20041;-77
2022/08/19 12:19:52;;;;;;;59.50;56.60;;;25.80;65.70;;;;;;5049662;28;20037;-77
2022/08/19 12:22:20;;;;;;;58.25;55.17;;;25.80;66.40;;;;;;5049294;28;20025;-77
2022/08/19 12:24:47;;;;;;;59.17;56.35;;;25.80;66.20;;;;;;5049477;28;20026;-77
2022/08/19 12:27:13;;;;;;;63.08;60.05;;;25.90;65.50;;;;;;5032573;28;20040;-77
2022/08/19 12:29:41;;;;;;;53.28;50.72;;;26.00;65.00;;;;;;5032332;28;20044;-77
2022/08/19 12:32:07;;;;;;;55.42;52.75;;;25.90;64.90;;;;;;5032115;28;20033;-77
2022/08/19 12:34:33;;;;;;;42.72;40.58;;;26.00;64.90;;;;;;5051870;28;20017;-77
2022/08/19 12:37:01;;;;;;;57.15;54.28;;;26.20;64.90;;;;;;5054464;28;20041;-77
2022/08/19 12:39:27;;;;;;;43.17;41.08;;;26.40;63.50;;;;;;5052919;28;20028;-77
2022/08/19 12:41:53;;;;;;;34.47;32.78;;;26.50;62.70;;;;;;5069665;28;20477;-77
2022/08/19 12:44:20;;;;;;;33.20;31.60;;;26.60;61.80;;;;;;5046985;28;20033;-77
2022/08/19 12:46:46;;;;;;;33.13;31.42;;;26.70;61.50;;;;;;5054550;28;20049;-77
2022/08/19 12:49:12;;;;;;;34.47;32.78;;;26.60;61.80;;;;;;5052771;28;20036;-77